Time;durP1;ratioP1;P1;durP2;ratioP2;P2;SDS_P1;SDS_P2;PMS_P1;PMS_P2;Temp;Humidity;BMP_temperature;BMP_pressure;BME280_temperature;BME280_humidity;BME280_pressure;Samples;Min_cycle;Max_cycle;Signal;HPM_P1;HPM_P2
2021/03/27 00:01:43;;;;;;;40.70;24.45;;;7.10;85.60;;;;;;5032807;28;20091;-76
2021/03/27 00:04:15;;;;;;;42.95;24.38;;;7.00;85.70;;;;;;5032379;28;20033;-76
2021/03/27 00:06:43;;;;;;;45.20;25.83;;;7.00;85.70;;;;;;5032076;28;20053;-76
2021/03/27 00:09:44;;;;;;;40.63;24.38;;;7.00;85.90;;;;;;5032368;28;20411;-76
2021/03/27 00:12:18;;;;;;;42.47;23.08;;;7.00;86.50;;;;;;5031001;28;20034;-75
2021/03/27 00:14:52;;;;;;;49.97;26.02;;;6.90;86.10;;;;;;5033575;28;20021;-76
2021/03/27 00:17:45;;;;;;;45.60;25.02;;;6.90;86.20;;;;;;5033549;28;20087;-76
2021/03/27 00:20:46;;;;;;;43.47;24.10;;;6.90;86.80;;;;;;5031853;28;20545;-76
2021/03/27 00:23:22;;;;;;;45.17;27.77;;;6.90;87.10;;;;;;5032438;28;20123;-76
2021/03/27 00:26:21;;;;;;;42.80;25.23;;;6.80;87.80;;;;;;5032809;28;20064;-76
2021/03/27 00:29:19;;;;;;;45.25;25.92;;;6.80;87.10;;;;;;5035400;28;20069;-76
2021/03/27 00:32:08;;;;;;;40.25;23.38;;;6.80;87.80;;;;;;5036534;28;20087;-76
2021/03/27 00:34:41;;;;;;;43.25;26.52;;;6.80;88.00;;;;;;5037010;28;20383;-76
2021/03/27 00:37:13;;;;;;;43.45;24.05;;;6.70;88.10;;;;;;5036055;28;20032;-76
2021/03/27 00:39:48;;;;;;;46.60;26.02;;;6.70;88.30;;;;;;5036783;28;20041;-76
2021/03/27 00:42:19;;;;;;;39.20;22.98;;;6.70;88.80;;;;;;5036707;28;20056;-76
2021/03/27 00:44:52;;;;;;;44.15;24.48;;;6.70;88.30;;;;;;5035460;28;20025;-76
2021/03/27 00:47:22;;;;;;;51.75;29.67;;;6.70;88.40;;;;;;5036548;28;20471;-76
2021/03/27 00:49:57;;;;;;;45.10;26.80;;;6.60;89.70;;;;;;5035119;28;20075;-76
2021/03/27 00:52:23;;;;;;;47.58;26.25;;;6.70;89.30;;;;;;5035559;28;20024;-76
2021/03/27 00:54:55;;;;;;;42.53;25.38;;;6.60;89.30;;;;;;5035220;28;20442;-76
2021/03/27 00:57:28;;;;;;;42.90;24.38;;;6.70;88.90;;;;;;5036566;28;20101;-76
2021/03/27 01:00:15;;;;;;;40.15;23.70;;;6.70;89.10;;;;;;5036440;28;20061;-76
2021/03/27 01:02:48;;;;;;;42.58;24.42;;;6.70;88.90;;;;;;5035057;28;20368;-76
2021/03/27 01:05:19;;;;;;;39.22;23.15;;;6.70;89.10;;;;;;5034500;28;20510;-76
2021/03/27 01:07:47;;;;;;;44.97;25.52;;;6.70;88.70;;;;;;5051645;28;20420;-76
2021/03/27 01:10:25;;;;;;;43.72;23.60;;;6.70;88.90;;;;;;5034875;28;20060;-76
2021/03/27 01:12:54;;;;;;;44.80;25.52;;;6.70;88.90;;;;;;5035030;28;20415;-76
2021/03/27 01:15:22;;;;;;;48.33;27.15;;;6.80;88.70;;;;;;5036147;28;20040;-76
2021/03/27 01:17:51;;;;;;;41.33;24.30;;;6.70;88.70;;;;;;5036231;28;20032;-76
2021/03/27 01:20:25;;;;;;;47.65;26.92;;;6.70;88.70;;;;;;5035838;28;20029;-76
2021/03/27 01:22:52;;;;;;;54.40;29.98;;;6.70;88.50;;;;;;5036331;28;20072;-76
2021/03/27 01:25:34;;;;;;;45.90;26.77;;;6.70;88.70;;;;;;5036253;28;20033;-76
2021/03/27 01:28:08;;;;;;;46.33;27.25;;;6.70;88.60;;;;;;5036374;28;20013;-76
2021/03/27 01:30:51;;;;;;;46.22;26.15;;;6.70;88.50;;;;;;5036466;28;20021;-76
2021/03/27 01:33:58;;;;;;;45.42;25.60;;;6.70;88.50;;;;;;5036228;28;20033;-76
2021/03/27 01:36:45;;;;;;;47.17;27.38;;;6.60;88.60;;;;;;5034202;28;20126;-76
2021/03/27 01:39:13;;;;;;;52.13;28.38;;;6.60;88.50;;;;;;5034212;28;20375;-76
2021/03/27 01:42:03;;;;;;;52.28;27.80;;;6.60;88.90;;;;;;5035425;28;20529;-76
2021/03/27 01:45:00;;;;;;;46.13;27.92;;;6.60;89.50;;;;;;5035782;28;20060;-76
2021/03/27 01:47:39;;;;;;;56.28;30.40;;;6.60;89.20;;;;;;5034753;28;20411;-76
2021/03/27 01:50:20;;;;;;;48.65;28.42;;;6.50;89.60;;;;;;5034778;28;20026;-76
2021/03/27 01:53:14;;;;;;;50.03;29.73;;;6.60;89.20;;;;;;5034815;28;20506;-76
2021/03/27 01:55:59;;;;;;;51.47;29.63;;;6.60;89.10;;;;;;5034451;28;20060;-76
2021/03/27 01:58:40;;;;;;;53.65;29.33;;;6.60;89.10;;;;;;5034819;28;20033;-76
2021/03/27 02:01:22;;;;;;;49.75;28.85;;;6.70;89.00;;;;;;5034759;28;20040;-76
2021/03/27 02:04:11;;;;;;;47.03;28.17;;;6.60;88.90;;;;;;5034263;28;20022;-76
2021/03/27 02:06:45;;;;;;;47.10;27.20;;;6.60;89.10;;;;;;5035403;28;20133;-76
2021/03/27 02:09:52;;;;;;;50.35;28.55;;;6.60;89.30;;;;;;5034403;28;20071;-76
2021/03/27 02:12:26;;;;;;;53.55;29.60;;;6.60;89.10;;;;;;5050926;28;20116;-76
2021/03/27 02:15:00;;;;;;;47.78;27.13;;;6.60;89.10;;;;;;5034290;28;20025;-76
2021/03/27 02:17:28;;;;;;;51.67;29.23;;;6.60;89.10;;;;;;5035115;28;20060;-76
2021/03/27 02:20:18;;;;;;;47.28;28.52;;;6.50;89.40;;;;;;5033801;28;20683;-76
2021/03/27 02:23:09;;;;;;;48.40;27.50;;;6.60;89.40;;;;;;5033301;28;20018;-76
2021/03/27 02:25:44;;;;;;;45.95;25.80;;;6.60;89.30;;;;;;5033551;28;20025;-76
2021/03/27 02:28:46;;;;;;;44.58;25.45;;;6.60;89.10;;;;;;5034791;28;20021;-76
2021/03/27 02:31:17;;;;;;;46.50;26.30;;;6.60;89.10;;;;;;5050130;28;20025;-76
2021/03/27 02:34:20;;;;;;;46.05;26.80;;;6.60;89.30;;;;;;5033192;28;20028;-76
2021/03/27 02:37:22;;;;;;;49.22;27.52;;;6.50;89.70;;;;;;5034665;28;20032;-76
2021/03/27 02:40:05;;;;;;;49.28;27.95;;;6.50;89.60;;;;;;5049991;28;20084;-75
2021/03/27 02:43:02;;;;;;;46.25;26.00;;;6.50;89.50;;;;;;5034258;28;20025;-76
2021/03/27 02:45:43;;;;;;;47.33;28.25;;;6.60;89.40;;;;;;5033054;28;20037;-76
2021/03/27 02:48:11;;;;;;;50.33;28.27;;;6.50;89.40;;;;;;5033255;28;20025;-76
2021/03/27 02:51:02;;;;;;;46.05;27.73;;;6.50;89.30;;;;;;5032229;28;20017;-76
2021/03/27 02:53:35;;;;;;;45.78;25.88;;;6.50;89.30;;;;;;5033379;28;20033;-76
2021/03/27 02:56:29;;;;;;;48.63;28.27;;;6.50;89.30;;;;;;5033030;28;20025;-76
2021/03/27 02:59:22;;;;;;;46.53;25.60;;;6.50;89.40;;;;;;5032802;28;20109;-75
2021/03/27 03:02:14;;;;;;;43.35;24.48;;;6.50;89.30;;;;;;5032093;28;20025;-76
2021/03/27 03:05:11;;;;;;;46.35;27.52;;;6.60;89.30;;;;;;5032818;28;20063;-76
2021/03/27 03:07:58;;;;;;;46.38;25.10;;;6.50;89.40;;;;;;5032799;28;20033;-76
2021/03/27 03:10:41;;;;;;;47.15;28.25;;;6.50;89.30;;;;;;5033854;28;20104;-75
2021/03/27 03:13:34;;;;;;;42.55;26.38;;;6.40;89.50;;;;;;5032750;28;20022;-75
2021/03/27 03:16:19;;;;;;;44.10;25.75;;;6.50;89.50;;;;;;5032425;28;20044;-76
2021/03/27 03:19:33;;;;;;;46.92;27.90;;;6.50;89.40;;;;;;5034037;28;20087;-76
2021/03/27 03:22:18;;;;;;;50.28;26.20;;;6.40;89.60;;;;;;5032138;28;20030;-76
2021/03/27 03:24:57;;;;;;;45.95;28.33;;;6.50;89.50;;;;;;5033738;28;20044;-76
2021/03/27 03:27:38;;;;;;;44.58;26.60;;;6.40;89.30;;;;;;5034295;28;20029;-76
2021/03/27 03:30:40;;;;;;;49.10;27.55;;;6.50;89.30;;;;;;5032960;28;20025;-76
2021/03/27 03:33:49;;;;;;;53.20;28.40;;;6.50;89.30;;;;;;5003325;28;20084;-76
2021/03/27 03:36:25;;;;;;;49.25;29.33;;;6.50;89.90;;;;;;5013014;28;20029;-76
2021/03/27 03:38:50;;;;;;;47.10;27.90;;;6.40;89.70;;;;;;5013580;28;20411;-77
2021/03/27 03:41:49;;;;;;;45.30;27.67;;;6.40;89.90;;;;;;5019078;28;20036;-77
2021/03/27 03:44:39;;;;;;;43.80;25.35;;;6.40;89.90;;;;;;5032927;28;20026;-77
2021/03/27 03:47:38;;;;;;;40.95;24.60;;;6.40;89.70;;;;;;5032358;28;20032;-76
2021/03/27 03:50:12;;;;;;;46.33;26.90;;;6.50;89.50;;;;;;5049152;28;20036;-77
2021/03/27 03:53:00;;;;;;;45.85;26.50;;;6.50;89.60;;;;;;5032108;28;20025;-76
2021/03/27 03:55:41;;;;;;;44.58;26.80;;;6.50;89.50;;;;;;5032203;28;20030;-76
2021/03/27 03:58:18;;;;;;;47.30;28.30;;;6.50;89.50;;;;;;5045046;28;20037;-75
2021/03/27 04:01:07;;;;;;;48.75;26.88;;;6.40;89.70;;;;;;5014043;28;20033;-74
2021/03/27 04:03:54;;;;;;;49.17;27.70;;;6.50;89.60;;;;;;5059924;28;20025;-75
2021/03/27 04:06:25;;;;;;;50.40;27.52;;;6.50;89.50;;;;;;5048170;28;20084;-75
2021/03/27 04:09:12;;;;;;;49.72;29.40;;;6.50;89.60;;;;;;5033085;28;20071;-75
2021/03/27 04:12:01;;;;;;;49.10;28.63;;;6.40;90.00;;;;;;5031900;28;20101;-75
2021/03/27 04:14:43;;;;;;;47.30;25.90;;;6.40;90.00;;;;;;5031785;28;20032;-75
2021/03/27 04:17:33;;;;;;;46.92;26.50;;;6.40;89.90;;;;;;5031078;28;20103;-75
2021/03/27 04:20:12;;;;;;;53.60;28.70;;;6.50;89.90;;;;;;5029222;28;20511;-75
2021/03/27 04:22:46;;;;;;;52.72;28.52;;;6.50;89.70;;;;;;5028218;28;20805;-75
2021/03/27 04:25:12;;;;;;;47.90;26.83;;;6.50;89.70;;;;;;5031156;28;20048;-76
2021/03/27 04:27:52;;;;;;;49.05;29.17;;;6.40;89.70;;;;;;5030894;28;20479;-76
2021/03/27 04:30:49;;;;;;;51.55;28.42;;;6.40;90.10;;;;;;5030948;28;20037;-76
2021/03/27 04:33:37;;;;;;;53.35;28.58;;;6.40;90.00;;;;;;5030779;28;20475;-76
2021/03/27 04:36:14;;;;;;;49.95;28.10;;;6.40;90.00;;;;;;5031694;28;20036;-76
2021/03/27 04:38:46;;;;;;;51.47;27.75;;;6.50;90.00;;;;;;5032070;28;20032;-76
2021/03/27 04:41:38;;;;;;;51.85;28.67;;;6.40;90.00;;;;;;5030678;28;20096;-76
2021/03/27 04:44:21;;;;;;;49.25;28.15;;;6.50;90.00;;;;;;5011204;28;20761;-76
2021/03/27 04:47:02;;;;;;;47.08;27.42;;;6.50;90.00;;;;;;5030636;28;20037;-76
2021/03/27 04:49:58;;;;;;;45.45;26.73;;;6.60;89.80;;;;;;5031312;28;20029;-76
2021/03/27 04:52:36;;;;;;;48.95;28.63;;;6.60;89.60;;;;;;5031149;28;20029;-76
2021/03/27 04:55:33;;;;;;;48.63;27.95;;;6.60;89.70;;;;;;5030034;28;20387;-76
2021/03/27 04:57:59;;;;;;;51.33;27.95;;;6.70;89.50;;;;;;5031083;28;20033;-76
2021/03/27 05:00:55;;;;;;;51.17;28.33;;;6.70;89.60;;;;;;5030739;28;20117;-76
2021/03/27 05:03:30;;;;;;;42.88;26.02;;;6.80;89.50;;;;;;5030870;28;20422;-76
2021/03/27 05:05:55;;;;;;;49.58;29.48;;;6.80;89.30;;;;;;5030442;28;20451;-76
2021/03/27 05:08:38;;;;;;;51.42;29.17;;;6.90;89.20;;;;;;5030193;28;20108;-76
2021/03/27 05:11:48;;;;;;;49.45;29.17;;;6.90;89.20;;;;;;5030240;28;20026;-76
2021/03/27 05:14:22;;;;;;;48.90;29.60;;;6.90;89.00;;;;;;5034268;28;20092;-75
2021/03/27 05:17:08;;;;;;;53.40;30.83;;;6.80;89.20;;;;;;5016064;28;20030;-75
2021/03/27 05:20:13;;;;;;;56.13;32.58;;;6.90;89.00;;;;;;5034214;28;20034;-75
2021/03/27 05:23:01;;;;;;;52.35;30.20;;;6.90;89.00;;;;;;5030458;28;20124;-75
2021/03/27 05:25:44;;;;;;;56.78;29.75;;;6.90;88.80;;;;;;5047571;28;20033;-75
2021/03/27 05:28:35;;;;;;;47.80;27.42;;;6.90;88.70;;;;;;5063820;28;20029;-75
2021/03/27 05:31:19;;;;;;;49.45;30.70;;;7.00;88.60;;;;;;5033783;28;20060;-75
2021/03/27 05:34:12;;;;;;;52.05;30.17;;;7.00;88.70;;;;;;5033832;28;20033;-75
2021/03/27 05:36:56;;;;;;;49.63;28.70;;;7.00;88.80;;;;;;5035717;28;20403;-75
2021/03/27 05:39:31;;;;;;;52.00;30.25;;;7.00;88.60;;;;;;5015638;28;20069;-76
2021/03/27 05:42:16;;;;;;;53.28;30.55;;;7.00;88.80;;;;;;5030891;28;20542;-76
2021/03/27 05:45:13;;;;;;;45.95;25.58;;;7.10;88.90;;;;;;5028460;28;20112;-76
2021/03/27 05:48:15;;;;;;;50.90;30.33;;;7.20;88.70;;;;;;5035456;28;20036;-76
2021/03/27 05:51:08;;;;;;;49.65;29.48;;;7.30;88.40;;;;;;5033708;28;20033;-75
2021/03/27 05:53:42;;;;;;;48.40;27.77;;;7.40;88.30;;;;;;5034691;28;20379;-75
2021/03/27 05:56:26;;;;;;;48.00;28.20;;;7.40;88.20;;;;;;5034147;28;20427;-75
2021/03/27 05:59:29;;;;;;;47.05;27.23;;;7.50;87.80;;;;;;5035200;28;20022;-75
2021/03/27 06:02:05;;;;;;;51.13;27.38;;;7.60;87.20;;;;;;5015896;28;20029;-76
2021/03/27 06:05:18;;;;;;;49.40;29.27;;;7.60;87.40;;;;;;5014792;28;20057;-75
2021/03/27 06:08:02;;;;;;;57.70;29.33;;;7.60;87.20;;;;;;5016606;28;20053;-75
2021/03/27 06:10:39;;;;;;;53.10;29.98;;;7.60;87.30;;;;;;5023321;28;20219;-75
2021/03/27 06:13:22;;;;;;;47.58;27.70;;;7.50;87.40;;;;;;5034251;28;20036;-76
2021/03/27 06:16:06;;;;;;;45.97;26.30;;;7.60;87.60;;;;;;5033788;28;20026;-75
2021/03/27 06:19:03;;;;;;;50.10;28.40;;;7.60;87.60;;;;;;5048580;28;20068;-76
2021/03/27 06:21:35;;;;;;;49.53;28.50;;;7.60;87.40;;;;;;5050207;28;20469;-76
2021/03/27 06:24:08;;;;;;;46.25;29.38;;;7.70;87.60;;;;;;5032356;28;20030;-75
2021/03/27 06:26:41;;;;;;;51.88;30.42;;;7.80;87.00;;;;;;5033458;28;20731;-75
2021/03/27 06:29:31;;;;;;;46.35;27.38;;;7.80;87.30;;;;;;5030708;28;20021;-76
2021/03/27 06:32:21;;;;;;;44.63;29.20;;;7.90;87.50;;;;;;5048302;28;20323;-75
2021/03/27 06:35:02;;;;;;;46.55;28.02;;;7.90;87.30;;;;;;5031698;28;20029;-76
2021/03/27 06:37:39;;;;;;;52.50;29.88;;;8.00;87.30;;;;;;5033080;28;20040;-75
2021/03/27 06:40:50;;;;;;;50.25;29.27;;;8.00;87.30;;;;;;5031546;28;20072;-75
2021/03/27 06:43:33;;;;;;;57.25;31.65;;;8.10;87.10;;;;;;5031728;28;20052;-76
2021/03/27 06:46:08;;;;;;;44.85;27.73;;;8.10;86.80;;;;;;5031541;28;20084;-76
2021/03/27 06:49:25;;;;;;;54.92;32.00;;;8.20;86.80;;;;;;5031253;28;20028;-76
2021/03/27 06:52:29;;;;;;;51.83;30.38;;;8.30;86.90;;;;;;5031424;28;20026;-76
2021/03/27 06:55:16;;;;;;;51.40;29.15;;;8.40;87.00;;;;;;5031751;28;20053;-76
2021/03/27 06:58:08;;;;;;;56.10;32.35;;;8.50;86.60;;;;;;5032955;28;20065;-76
2021/03/27 07:00:43;;;;;;;53.35;30.15;;;8.60;86.50;;;;;;5031373;28;20033;-76
2021/03/27 07:03:51;;;;;;;50.88;30.13;;;8.70;86.30;;;;;;5032538;28;20029;-76
2021/03/27 07:06:24;;;;;;;54.58;31.65;;;8.80;86.00;;;;;;5030758;28;20103;-76
2021/03/27 07:09:03;;;;;;;50.80;29.23;;;8.80;85.20;;;;;;5031211;28;20021;-76
2021/03/27 07:12:12;;;;;;;49.35;27.65;;;8.90;85.50;;;;;;5032328;28;20017;-76
2021/03/27 07:15:29;;;;;;;50.58;29.52;;;9.00;85.40;;;;;;5063001;28;20387;-76
2021/03/27 07:18:28;;;;;;;66.47;38.08;;;9.10;85.40;;;;;;5030186;28;20036;-76
2021/03/27 07:21:05;;;;;;;50.97;29.45;;;9.20;84.80;;;;;;5048269;28;20080;-76
2021/03/27 07:23:34;;;;;;;45.47;26.52;;;9.30;84.20;;;;;;5031962;28;20025;-76
2021/03/27 07:26:03;;;;;;;47.00;27.20;;;9.40;84.20;;;;;;5031687;28;20541;-76
2021/03/27 07:28:44;;;;;;;43.90;26.48;;;9.40;83.70;;;;;;5032528;28;20021;-76
2021/03/27 07:31:29;;;;;;;42.70;26.20;;;9.40;83.80;;;;;;5032408;28;20168;-76
2021/03/27 07:34:05;;;;;;;42.33;26.10;;;9.50;83.80;;;;;;5032280;28;20041;-76
2021/03/27 07:36:49;;;;;;;44.33;26.17;;;9.60;83.60;;;;;;5032006;28;20037;-75
2021/03/27 07:39:36;;;;;;;38.40;23.70;;;9.60;83.00;;;;;;5033591;28;20086;-76
2021/03/27 07:42:32;;;;;;;37.22;23.17;;;9.60;83.50;;;;;;5033993;28;20029;-76
2021/03/27 07:45:22;;;;;;;47.05;27.33;;;9.70;82.70;;;;;;5032463;28;20033;-75
2021/03/27 07:48:22;;;;;;;43.05;25.83;;;9.70;83.10;;;;;;5033874;28;20116;-75
2021/03/27 07:51:06;;;;;;;35.97;23.10;;;9.80;82.90;;;;;;5032690;28;20036;-75
2021/03/27 07:54:12;;;;;;;36.80;21.05;;;9.90;81.80;;;;;;5032675;28;20029;-77
2021/03/27 07:57:14;;;;;;;44.22;24.35;;;9.90;81.50;;;;;;5031902;28;20473;-76
2021/03/27 07:59:54;;;;;;;31.50;21.00;;;10.00;81.70;;;;;;5033747;28;20100;-73
2021/03/27 08:02:23;;;;;;;37.67;21.92;;;10.00;81.70;;;;;;5033827;28;20025;-73
2021/03/27 08:05:16;;;;;;;36.78;23.27;;;10.10;81.90;;;;;;5032727;28;20028;-71
2021/03/27 08:07:52;;;;;;;32.28;19.10;;;10.20;81.10;;;;;;5033356;28;20025;-72
2021/03/27 08:10:35;;;;;;;33.85;21.08;;;10.30;80.60;;;;;;5031862;28;20076;-81
2021/03/27 08:13:24;;;;;;;36.90;22.75;;;10.40;80.30;;;;;;5033504;28;20466;-82
2021/03/27 08:16:19;;;;;;;38.00;22.55;;;10.40;80.60;;;;;;5030318;28;20037;-82
2021/03/27 08:19:07;;;;;;;43.00;25.50;;;10.50;80.00;;;;;;5030464;28;20032;-81
2021/03/27 08:21:48;;;;;;;35.28;22.55;;;10.60;79.80;;;;;;5031825;28;20026;-79
2021/03/27 08:24:43;;;;;;;45.90;28.20;;;10.70;79.30;;;;;;5032437;28;20030;-80
2021/03/27 08:27:26;;;;;;;40.88;24.95;;;10.70;78.90;;;;;;5022094;28;20475;-80
2021/03/27 08:30:29;;;;;;;34.45;23.75;;;10.80;78.70;;;;;;5031642;28;20383;-81
2021/03/27 08:33:21;;;;;;;34.63;20.77;;;10.90;78.40;;;;;;5033154;28;20022;-80
2021/03/27 08:36:11;;;;;;;31.45;20.33;;;11.00;78.20;;;;;;5031325;28;20491;-87
2021/03/27 08:38:52;;;;;;;33.40;21.70;;;11.10;78.40;;;;;;5031668;28;20498;-84
2021/03/27 08:41:47;;;;;;;32.50;20.05;;;11.10;77.20;;;;;;5031860;28;20160;-85
2021/03/27 08:44:36;;;;;;;36.95;21.17;;;11.10;77.30;;;;;;5030078;28;20163;-84
2021/03/27 08:47:19;;;;;;;35.53;21.67;;;11.20;77.30;;;;;;5027856;28;20025;-84
2021/03/27 08:49:56;;;;;;;29.17;18.90;;;11.30;77.60;;;;;;5031735;28;20045;-85
2021/03/27 08:52:40;;;;;;;34.40;20.15;;;11.40;77.10;;;;;;5032196;28;20049;-84
2021/03/27 08:55:06;;;;;;;34.03;22.20;;;11.40;76.60;;;;;;5033553;28;20029;-83
2021/03/27 08:57:50;;;;;;;29.73;17.85;;;11.50;76.50;;;;;;5033664;28;20107;-84
2021/03/27 09:00:43;;;;;;;33.35;20.88;;;11.50;76.40;;;;;;5033471;28;20415;-85
2021/03/27 09:03:15;;;;;;;30.27;18.20;;;11.50;76.10;;;;;;5034571;28;20538;-87
2021/03/27 09:06:06;;;;;;;31.67;19.55;;;11.60;76.50;;;;;;5033974;28;20053;-86
2021/03/27 09:09:09;;;;;;;27.50;17.75;;;11.60;76.00;;;;;;5035447;28;20044;-85
2021/03/27 09:12:02;;;;;;;34.50;19.92;;;11.70;75.80;;;;;;5034005;28;20017;-82
2021/03/27 09:15:02;;;;;;;33.47;18.65;;;11.60;74.80;;;;;;5034778;28;20017;-85
2021/03/27 09:17:35;;;;;;;32.65;20.67;;;11.70;75.50;;;;;;5034897;28;20025;-79
2021/03/27 09:20:16;;;;;;;31.13;19.08;;;11.70;75.30;;;;;;5036753;28;20028;-80
2021/03/27 09:22:41;;;;;;;;;;;11.70;74.70;;;;;;5036309;28;20025;-84
2021/03/27 09:25:32;;;;;;;31.20;18.83;;;11.70;75.30;;;;;;5035613;28;19912;-82
2021/03/27 09:28:04;;;;;;;30.20;19.52;;;11.80;74.80;;;;;;5036417;28;20021;-82
2021/03/27 09:31:05;;;;;;;30.98;19.20;;;11.90;74.60;;;;;;5036736;28;20025;-83
2021/03/27 09:33:39;;;;;;;30.08;18.42;;;12.00;74.50;;;;;;5035260;28;20022;-82
2021/03/27 09:36:08;;;;;;;30.92;19.80;;;12.00;73.80;;;;;;5035156;28;20068;-82
2021/03/27 09:38:44;;;;;;;30.33;16.95;;;12.10;73.70;;;;;;5035115;28;20037;-83
2021/03/27 09:41:40;;;;;;;28.90;19.38;;;12.20;72.90;;;;;;5035223;28;20111;-83
2021/03/27 09:44:09;;;;;;;27.02;17.13;;;12.30;72.20;;;;;;5035063;28;20025;-82
2021/03/27 09:47:02;;;;;;;30.40;17.90;;;12.40;72.60;;;;;;5034766;28;20036;-80
2021/03/27 09:49:34;;;;;;;30.48;18.77;;;12.60;70.90;;;;;;5035039;28;20021;-82
2021/03/27 09:52:17;;;;;;;27.70;17.83;;;12.60;70.70;;;;;;5034999;28;20467;-77
2021/03/27 09:54:51;;;;;;;27.85;16.75;;;12.70;70.60;;;;;;5034869;28;20022;-80
2021/03/27 09:57:27;;;;;;;24.75;17.02;;;12.80;69.30;;;;;;5034708;28;20037;-83
2021/03/27 10:00:30;;;;;;;27.92;17.02;;;12.80;69.30;;;;;;5034950;28;20033;-87
2021/03/27 10:03:15;;;;;;;28.85;16.30;;;12.90;69.50;;;;;;5036357;28;20029;-87
2021/03/27 10:05:53;;;;;;;27.85;17.17;;;13.00;68.90;;;;;;5034608;28;20514;-85
2021/03/27 10:08:19;;;;;;;25.90;17.17;;;12.80;67.40;;;;;;5035109;28;20455;-86
2021/03/27 10:11:08;;;;;;;31.25;18.08;;;13.00;66.90;;;;;;5035432;28;20025;-86
2021/03/27 10:13:56;;;;;;;25.02;16.05;;;13.00;67.00;;;;;;5035071;28;20459;-85
2021/03/27 10:16:50;;;;;;;26.80;17.13;;;13.00;65.80;;;;;;5041680;28;20548;-87
2021/03/27 10:19:19;;;;;;;24.55;15.10;;;13.10;67.00;;;;;;5033308;28;20030;-86
2021/03/27 10:21:59;;;;;;;26.83;15.77;;;13.20;66.40;;;;;;5033237;28;20033;-86
2021/03/27 10:24:58;;;;;;;27.73;17.73;;;13.30;65.00;;;;;;5032879;28;20021;-86
2021/03/27 10:27:23;;;;;;;28.35;15.45;;;13.20;63.50;;;;;;5032699;28;20494;-86
2021/03/27 10:30:14;;;;;;;30.33;17.02;;;13.20;64.60;;;;;;5033990;28;20022;-87
2021/03/27 10:32:45;;;;;;;31.00;17.20;;;13.30;64.60;;;;;;5032784;28;20018;-87
2021/03/27 10:35:23;;;;;;;25.73;15.27;;;13.40;63.20;;;;;;5033046;28;20578;-87
2021/03/27 10:38:08;;;;;;;24.60;13.75;;;13.50;62.20;;;;;;5033089;28;20172;-88
2021/03/27 10:40:57;;;;;;;25.95;15.15;;;13.70;61.90;;;;;;5033768;28;20474;-86
2021/03/27 10:43:31;;;;;;;23.33;13.40;;;13.50;60.00;;;;;;5032606;28;20029;-87
2021/03/27 10:46:18;;;;;;;20.20;12.50;;;13.60;61.20;;;;;;5032420;28;20029;-84
2021/03/27 10:49:03;;;;;;;34.13;18.88;;;13.60;61.60;;;;;;5033776;28;20026;-87
2021/03/27 10:51:53;;;;;;;42.83;22.10;;;13.70;60.80;;;;;;5032152;28;20029;-87
2021/03/27 10:54:56;;;;;;;48.55;26.90;;;13.70;59.50;;;;;;5032585;28;20029;-85
2021/03/27 10:57:45;;;;;;;30.05;17.60;;;13.90;60.50;;;;;;5032422;28;20185;-86
2021/03/27 11:00:43;;;;;;;48.65;25.73;;;13.80;60.60;;;;;;5032755;28;20029;-87
2021/03/27 11:03:46;;;;;;;25.92;16.05;;;13.80;61.40;;;;;;5033666;28;20073;-87
2021/03/27 11:06:26;;;;;;;25.83;15.65;;;13.80;60.40;;;;;;5032056;28;20137;-87
2021/03/27 11:09:11;;;;;;;37.90;19.27;;;13.70;60.40;;;;;;5032496;28;20426;-87
2021/03/27 11:12:07;;;;;;;54.50;28.38;;;13.80;59.90;;;;;;5032824;28;20029;-87
2021/03/27 11:15:14;;;;;;;30.15;16.48;;;13.60;60.00;;;;;;5032671;28;20025;-87
2021/03/27 11:18:10;;;;;;;37.90;20.38;;;13.30;58.70;;;;;;5026482;28;20063;-87
2021/03/27 11:21:10;;;;;;;54.35;31.67;;;13.40;58.50;;;;;;5033739;28;20415;-87
2021/03/27 11:23:57;;;;;;;33.20;19.58;;;13.50;58.10;;;;;;5034927;28;20056;-85
2021/03/27 11:26:23;;;;;;;22.60;13.00;;;13.60;56.70;;;;;;5033227;28;20041;-85
2021/03/27 11:28:54;;;;;;;24.52;14.75;;;13.70;54.40;;;;;;5033581;28;20376;-85
2021/03/27 11:31:50;;;;;;;29.98;16.25;;;13.80;55.30;;;;;;5034246;28;20026;-81
2021/03/27 11:34:21;;;;;;;21.33;12.68;;;13.70;53.70;;;;;;5032437;28;20025;-78
2021/03/27 11:37:13;;;;;;;28.83;16.63;;;13.80;53.90;;;;;;5032872;28;20383;-78
2021/03/27 11:39:39;;;;;;;21.30;14.07;;;13.80;51.20;;;;;;5023624;28;20045;-78
2021/03/27 11:42:10;;;;;;;29.67;16.33;;;13.80;52.20;;;;;;5034241;28;20029;-78
2021/03/27 11:44:58;;;;;;;27.02;15.25;;;13.70;53.30;;;;;;5032817;28;20517;-81
2021/03/27 11:47:38;;;;;;;23.38;14.20;;;13.70;53.30;;;;;;5032573;28;20029;-76
2021/03/27 11:50:45;;;;;;;26.92;14.57;;;13.90;53.80;;;;;;5032782;28;20112;-74
2021/03/27 11:53:15;;;;;;;22.17;12.93;;;14.00;53.30;;;;;;5032625;28;20605;-75
2021/03/27 11:55:57;;;;;;;27.45;16.15;;;14.00;54.00;;;;;;5032693;28;20036;-84
2021/03/27 11:59:42;;;;;;;20.55;13.55;;;13.70;53.60;;;;;;5033131;28;20029;-83
2021/03/27 12:01:30;;;;;;;31.85;17.58;;;13.80;55.40;;;;;;5049864;28;20021;-83
2021/03/27 12:04:32;;;;;;;25.45;16.33;;;13.80;54.50;;;;;;5035827;28;20040;-84
2021/03/27 12:07:20;;;;;;;27.88;17.30;;;14.00;55.50;;;;;;5033662;28;20053;-83
2021/03/27 12:09:55;;;;;;;25.17;16.15;;;14.10;53.50;;;;;;5032658;28;20443;-83
2021/03/27 12:12:33;;;;;;;27.38;15.45;;;14.30;54.40;;;;;;5033629;28;20071;-83
2021/03/27 12:15:09;;;;;;;27.67;16.48;;;14.40;55.10;;;;;;5033731;28;20022;-84
2021/03/27 12:18:13;;;;;;;30.92;18.15;;;14.50;54.70;;;;;;5031626;28;20420;-83
2021/03/27 12:20:52;;;;;;;23.55;14.63;;;14.40;55.30;;;;;;5031806;28;20088;-84
2021/03/27 12:23:31;;;;;;;23.85;16.33;;;14.40;56.50;;;;;;5035117;28;20386;-82
2021/03/27 12:26:48;;;;;;;24.30;15.80;;;14.10;56.20;;;;;;5034468;28;20549;-80
2021/03/27 12:29:36;;;;;;;34.38;19.52;;;13.80;56.20;;;;;;5004745;28;20476;-80
2021/03/27 12:32:24;;;;;;;27.52;16.65;;;13.50;58.00;;;;;;5034695;28;20088;-85
2021/03/27 12:35:15;;;;;;;26.73;16.92;;;13.40;58.80;;;;;;5034670;28;20021;-84
2021/03/27 12:38:12;;;;;;;26.45;16.42;;;13.30;58.60;;;;;;5035672;28;20025;-85
2021/03/27 12:40:53;;;;;;;34.17;18.05;;;13.30;58.90;;;;;;5034552;28;20041;-83
2021/03/27 12:43:23;;;;;;;26.27;18.05;;;13.20;59.50;;;;;;5034419;28;20075;-84
2021/03/27 12:46:14;;;;;;;26.85;18.02;;;13.00;59.90;;;;;;5034339;28;20033;-82
2021/03/27 12:49:01;;;;;;;26.52;16.33;;;12.90;60.20;;;;;;5034393;28;20040;-85
2021/03/27 12:51:30;;;;;;;31.10;20.10;;;12.90;60.10;;;;;;5034323;28;20022;-84
2021/03/27 12:54:40;;;;;;;26.40;16.58;;;12.80;59.30;;;;;;5034527;28;20194;-86
2021/03/27 12:57:30;;;;;;;29.60;18.95;;;12.70;60.10;;;;;;5034164;28;20206;-86
2021/03/27 13:00:12;;;;;;;28.88;17.15;;;12.80;60.40;;;;;;5033612;28;20075;-85
2021/03/27 13:02:50;;;;;;;30.02;19.63;;;12.80;60.90;;;;;;5033920;28;20025;-83
2021/03/27 13:05:34;;;;;;;24.77;17.05;;;12.80;59.50;;;;;;5033699;28;20072;-84
2021/03/27 13:08:21;;;;;;;34.75;18.35;;;12.90;60.40;;;;;;5033922;28;20035;-84
2021/03/27 13:11:16;;;;;;;29.80;18.88;;;12.90;60.00;;;;;;5035341;28;20076;-84
2021/03/27 13:13:53;;;;;;;24.75;16.55;;;13.00;60.70;;;;;;5035286;28;20343;-85
2021/03/27 13:16:28;;;;;;;31.67;20.42;;;13.10;60.30;;;;;;5034959;28;20022;-85
2021/03/27 13:19:31;;;;;;;35.95;22.13;;;13.10;59.10;;;;;;5035202;28;20028;-85
2021/03/27 13:22:09;;;;;;;27.95;19.23;;;12.90;59.10;;;;;;5035735;28;20537;-86
2021/03/27 13:24:35;;;;;;;30.63;18.73;;;12.90;60.60;;;;;;5035572;28;20033;-86
2021/03/27 13:27:13;;;;;;;27.92;17.25;;;12.90;60.60;;;;;;5035702;28;20032;-85
2021/03/27 13:29:43;;;;;;;27.42;17.23;;;13.10;61.10;;;;;;5035595;28;20056;-86
2021/03/27 13:32:17;;;;;;;26.92;17.38;;;13.40;60.90;;;;;;5036853;28;20021;-85
2021/03/27 13:35:04;;;;;;;27.65;18.55;;;13.70;60.70;;;;;;5034912;28;20029;-86
2021/03/27 13:37:36;;;;;;;34.55;20.85;;;14.20;60.00;;;;;;5035689;28;20084;-87
2021/03/27 13:40:05;;;;;;;32.17;19.98;;;14.50;58.70;;;;;;5036663;28;20049;-86
2021/03/27 13:43:25;;;;;;;33.90;22.52;;;14.80;56.60;;;;;;5035368;28;20026;-85
2021/03/27 13:46:11;;;;;;;35.22;22.13;;;14.80;55.70;;;;;;5024728;28;20037;-86
2021/03/27 13:49:08;;;;;;;27.85;18.20;;;14.90;56.00;;;;;;5045560;28;20156;-88
2021/03/27 13:51:42;;;;;;;32.65;18.88;;;15.10;55.60;;;;;;5033471;28;20399;-85
2021/03/27 13:54:29;;;;;;;29.13;19.63;;;15.10;55.10;;;;;;5036142;28;20025;-85
2021/03/27 13:57:21;;;;;;;28.75;18.90;;;14.90;55.60;;;;;;5034957;28;20026;-86
2021/03/27 14:00:11;;;;;;;28.55;18.38;;;14.80;56.20;;;;;;5036442;28;20025;-86
2021/03/27 14:03:27;;;;;;;28.95;17.50;;;14.70;55.90;;;;;;5036641;28;20044;-87